Time;durP1;ratioP1;P1;durP2;ratioP2;P2;SDS_P1;SDS_P2;PMS_P1;PMS_P2;Temp;Humidity;BMP_temperature;BMP_pressure;BME280_temperature;BME280_humidity;BME280_pressure;Samples;Min_cycle;Max_cycle;Signal;HPM_P1;HPM_P2
2022/01/10 00:01:29;;;;;;;28.02;7.78;;;2.40;99.90;;;;;;6094663;23;20516;-82
2022/01/10 00:03:55;;;;;;;27.50;5.28;;;2.30;99.90;;;;;;6094475;23;20050;-83
2022/01/10 00:06:29;;;;;;;32.00;5.18;;;2.30;99.90;;;;;;6070746;23;20049;-84
2022/01/10 00:08:55;;;;;;;22.10;5.68;;;2.30;99.90;;;;;;6093349;23;20022;-83
2022/01/10 00:11:21;;;;;;;23.13;5.25;;;2.10;99.90;;;;;;6071027;23;20031;-83
2022/01/10 00:13:47;;;;;;;26.15;6.07;;;2.10;99.90;;;;;;6095706;23;20019;-82
2022/01/10 00:16:13;;;;;;;24.13;5.93;;;2.00;99.90;;;;;;6097167;23;20165;-83
2022/01/10 00:18:38;;;;;;;22.48;6.00;;;2.00;99.90;;;;;;6095084;23;20022;-83
2022/01/10 00:21:04;;;;;;;24.38;5.03;;;1.90;99.90;;;;;;6069661;23;20098;-83
2022/01/10 00:23:30;;;;;;;26.20;6.10;;;1.80;99.90;;;;;;6046447;23;20026;-83
2022/01/10 00:25:56;;;;;;;19.90;4.40;;;1.80;99.90;;;;;;6094815;23;20030;-83
2022/01/10 00:28:21;;;;;;;23.92;5.03;;;1.70;99.90;;;;;;6070129;23;20027;-82
2022/01/10 00:30:47;;;;;;;21.02;4.60;;;1.70;99.90;;;;;;6095071;23;20030;-82
2022/01/10 00:33:13;;;;;;;35.20;6.32;;;1.60;99.90;;;;;;6072532;23;20022;-82
2022/01/10 00:35:39;;;;;;;30.05;6.30;;;1.50;99.90;;;;;;6074044;23;20354;-82
2022/01/10 00:38:05;;;;;;;25.55;5.63;;;1.50;99.90;;;;;;6095178;23;20101;-82
2022/01/10 00:40:31;;;;;;;25.60;5.57;;;1.50;99.90;;;;;;6070322;23;20058;-83
2022/01/10 00:42:57;;;;;;;33.70;7.30;;;1.50;99.90;;;;;;6094492;23;20065;-84
2022/01/10 00:45:26;;;;;;;32.28;6.68;;;1.50;99.90;;;;;;6094846;23;20478;-83
2022/01/10 00:47:59;;;;;;;29.23;5.65;;;1.60;99.90;;;;;;6096715;23;20462;-84
2022/01/10 00:50:27;;;;;;;29.08;5.88;;;1.60;99.90;;;;;;6050491;23;20019;-83
2022/01/10 00:52:53;;;;;;;28.60;7.60;;;1.50;99.90;;;;;;6046451;23;20030;-83
2022/01/10 00:55:20;;;;;;;24.55;5.65;;;1.40;99.90;;;;;;6096107;23;20026;-84
2022/01/10 00:57:46;;;;;;;31.60;6.75;;;1.40;99.90;;;;;;6070048;23;20031;-82
2022/01/10 01:00:14;;;;;;;24.85;5.30;;;1.40;99.90;;;;;;6069330;23;20034;-82
2022/01/10 01:02:42;;;;;;;34.50;6.75;;;1.40;99.90;;;;;;6070530;23;20516;-84
2022/01/10 01:05:11;;;;;;;26.23;5.95;;;1.40;99.90;;;;;;6046744;23;20034;-83
2022/01/10 01:07:42;;;;;;;31.05;6.60;;;1.40;99.90;;;;;;6070120;23;20080;-83
2022/01/10 01:10:37;;;;;;;32.63;6.97;;;1.40;99.90;;;;;;6023530;23;20451;-84
2022/01/10 01:13:03;;;;;;;27.98;5.80;;;1.40;99.90;;;;;;6070282;23;20033;-83
2022/01/10 01:15:31;;;;;;;26.85;6.97;;;1.40;99.90;;;;;;6071273;23;20026;-84
2022/01/10 01:18:42;;;;;;;26.52;6.53;;;1.40;99.90;;;;;;6071393;23;20513;-83
2022/01/10 01:24:02;;;;;;;32.53;6.85;;;1.30;99.90;;;;;;6071676;23;20034;-81
2022/01/10 01:26:16;;;;;;;26.60;5.90;;;1.20;99.90;;;;;;6095315;23;20032;-83
2022/01/10 01:28:42;;;;;;;20.20;5.05;;;1.20;99.90;;;;;;6045203;23;20023;-84
2022/01/10 01:31:11;;;;;;;30.38;5.25;;;1.10;99.90;;;;;;6094505;23;20133;-83
2022/01/10 01:33:37;;;;;;;20.63;5.50;;;1.10;99.90;;;;;;6094840;23;20528;-83
2022/01/10 01:36:03;;;;;;;24.17;5.18;;;1.00;99.90;;;;;;6097642;23;20014;-83
2022/01/10 01:38:29;;;;;;;25.88;6.40;;;0.90;99.90;;;;;;6072392;23;20086;-83
2022/01/10 01:43:59;;;;;;;26.85;5.93;;;0.90;99.90;;;;;;6037649;23;20423;-82
2022/01/10 01:46:25;;;;;;;25.80;6.07;;;0.80;99.90;;;;;;6013987;23;20063;-83
2022/01/10 01:48:52;;;;;;;24.67;6.45;;;0.80;99.90;;;;;;6014317;23;20031;-83
2022/01/10 01:51:19;;;;;;;19.42;5.10;;;0.80;99.90;;;;;;6017032;23;20499;-84
2022/01/10 01:53:46;;;;;;;36.35;8.32;;;0.70;99.90;;;;;;6039756;23;20074;-82
2022/01/10 01:56:13;;;;;;;43.60;9.27;;;0.70;99.90;;;;;;6013256;23;20027;-82
2022/01/10 01:58:41;;;;;;;31.27;7.40;;;0.60;99.90;;;;;;6036229;23;20098;-82
2022/01/10 02:01:08;;;;;;;27.88;9.50;;;0.70;99.90;;;;;;6013482;23;20031;-83
2022/01/10 02:03:37;;;;;;;23.95;6.47;;;0.60;99.90;;;;;;6038555;23;20030;-82
2022/01/10 02:06:03;;;;;;;19.23;6.75;;;0.60;99.90;;;;;;6014463;23;20028;-83
2022/01/10 02:08:29;;;;;;;24.95;8.52;;;0.60;99.90;;;;;;6037634;23;20463;-84
2022/01/10 02:10:55;;;;;;;36.20;8.00;;;0.60;99.90;;;;;;6012886;23;20120;-82
2022/01/10 02:13:21;;;;;;;19.95;6.80;;;0.50;99.90;;;;;;6036993;23;20027;-83
2022/01/10 02:18:19;;;;;;;23.08;5.93;;;0.50;99.90;;;;;;6066958;23;20511;-83
2022/01/10 02:20:46;;;;;;;30.63;9.25;;;0.50;99.90;;;;;;6074524;23;20387;-83
2022/01/10 02:23:13;;;;;;;28.67;7.40;;;;;;;;;;6102636;23;20026;-84
2022/01/10 02:25:39;;;;;;;27.63;7.53;;;0.40;99.90;;;;;;6075827;23;20026;-82
2022/01/10 02:28:05;;;;;;;29.20;7.93;;;0.40;99.90;;;;;;6124573;23;20032;-82
2022/01/10 02:30:31;;;;;;;27.42;7.57;;;0.40;99.90;;;;;;6100269;23;20030;-83
2022/01/10 02:32:58;;;;;;;28.67;8.50;;;0.40;99.90;;;;;;6099844;23;20476;-83
2022/01/10 02:35:27;;;;;;;22.55;7.15;;;0.40;99.90;;;;;;6126673;23;20022;-83
2022/01/10 02:37:55;;;;;;;28.80;7.88;;;0.30;99.90;;;;;;6100556;23;20022;-84
2022/01/10 02:40:27;;;;;;;21.30;6.85;;;0.40;99.90;;;;;;6099669;23;20033;-83
2022/01/10 02:42:53;;;;;;;24.10;7.10;;;0.30;99.90;;;;;;6125102;23;20465;-82
2022/01/10 02:45:20;;;;;;;31.60;7.35;;;0.30;99.90;;;;;;6102549;23;20394;-83
2022/01/10 02:47:47;;;;;;;40.97;9.57;;;0.40;99.90;;;;;;6102739;23;20078;-83
2022/01/10 02:50:14;;;;;;;28.48;7.72;;;0.40;99.90;;;;;;6078505;23;20025;-83
2022/01/10 02:52:41;;;;;;;24.08;7.63;;;0.40;99.90;;;;;;6076848;23;20043;-84
2022/01/10 02:55:09;;;;;;;21.95;6.97;;;0.40;99.90;;;;;;6127347;23;20129;-83
2022/01/10 02:57:35;;;;;;;19.40;6.18;;;0.40;99.90;;;;;;6076164;23;20450;-83
2022/01/10 03:00:06;;;;;;;25.98;7.45;;;0.30;99.90;;;;;;6100397;23;20362;-82
2022/01/10 03:02:36;;;;;;;27.02;8.32;;;0.30;99.90;;;;;;6076461;23;20018;-83
2022/01/10 03:05:30;;;;;;;25.80;7.72;;;0.30;99.90;;;;;;6125005;23;20032;-83
2022/01/10 03:07:58;;;;;;;31.80;8.15;;;0.30;99.90;;;;;;6065760;23;20495;-83
2022/01/10 03:10:29;;;;;;;23.55;7.63;;;0.30;99.90;;;;;;6063500;23;20447;-82
2022/01/10 03:12:55;;;;;;;25.85;8.32;;;0.30;99.90;;;;;;6065729;23;20077;-83
2022/01/10 03:15:21;;;;;;;27.05;9.63;;;0.30;99.90;;;;;;6045159;23;20079;-83
2022/01/10 03:17:50;;;;;;;27.25;7.60;;;0.20;99.90;;;;;;6022026;23;20059;-82
2022/01/10 03:20:24;;;;;;;31.35;7.65;;;0.20;99.90;;;;;;6042942;23;20098;-82
2022/01/10 03:22:53;;;;;;;25.40;7.75;;;0.20;99.90;;;;;;6040415;23;20105;-83
2022/01/10 03:25:22;;;;;;;28.90;7.90;;;0.20;99.90;;;;;;6089531;23;20022;-82
2022/01/10 03:27:48;;;;;;;30.05;7.50;;;0.10;99.90;;;;;;6042125;23;20082;-82
2022/01/10 03:30:15;;;;;;;25.75;7.53;;;0.10;99.90;;;;;;6020100;23;20499;-82
2022/01/10 03:32:43;;;;;;;38.00;10.32;;;0.10;99.90;;;;;;6042251;23;20075;-81
2022/01/10 03:35:09;;;;;;;22.20;7.55;;;0.10;99.90;;;;;;6040761;23;20496;-82
2022/01/10 03:37:35;;;;;;;31.60;8.80;;;0.10;99.90;;;;;;6041773;23;20035;-82
2022/01/10 03:40:02;;;;;;;29.08;7.85;;;0.00;99.90;;;;;;6098130;23;20061;-82
2022/01/10 03:42:31;;;;;;;28.63;7.78;;;0.00;99.90;;;;;;6100316;23;20057;-82
2022/01/10 03:44:57;;;;;;;32.20;8.70;;;0.00;99.90;;;;;;6077350;23;20143;-81
2022/01/10 03:47:23;;;;;;;32.20;9.55;;;0.00;99.90;;;;;;6128137;23;20030;-83
2022/01/10 03:49:49;;;;;;;29.10;8.43;;;-0.10;99.90;;;;;;6103740;23;20018;-84
2022/01/10 03:52:15;;;;;;;29.65;10.30;;;0.00;99.90;;;;;;6126932;23;20044;-82
2022/01/10 03:54:41;;;;;;;29.90;7.07;;;0.00;99.90;;;;;;6099274;23;20112;-82
2022/01/10 03:57:12;;;;;;;25.88;7.75;;;-0.10;99.90;;;;;;6123915;23;20054;-81
2022/01/10 03:59:54;;;;;;;26.85;7.07;;;-0.10;99.90;;;;;;6121680;23;20104;-82
2022/01/10 04:02:21;;;;;;;39.92;10.13;;;-0.10;99.90;;;;;;6099782;23;20629;-82
2022/01/10 04:04:48;;;;;;;32.78;7.43;;;-0.10;99.90;;;;;;6099829;23;20387;-83
2022/01/10 04:07:16;;;;;;;24.25;7.80;;;-0.10;99.90;;;;;;6123988;23;20488;-80
2022/01/10 04:09:42;;;;;;;31.13;9.75;;;-0.10;99.90;;;;;;6123880;23;20022;-82
2022/01/10 04:12:08;;;;;;;28.20;8.73;;;-0.10;99.90;;;;;;6076561;23;20033;-82
2022/01/10 04:14:34;;;;;;;33.00;8.82;;;-0.10;99.90;;;;;;6127910;23;20076;-82
2022/01/10 04:17:00;;;;;;;31.25;8.35;;;0.00;99.90;;;;;;6102058;23;20022;-82
2022/01/10 04:19:25;;;;;;;33.28;8.25;;;0.00;99.90;;;;;;6126585;23;20109;-82
2022/01/10 04:21:51;;;;;;;32.95;8.65;;;0.00;99.90;;;;;;6123792;23;20026;-82
2022/01/10 04:24:17;;;;;;;26.90;7.38;;;-0.10;99.90;;;;;;6077384;23;20025;-80
2022/01/10 04:26:43;;;;;;;22.38;8.27;;;-0.10;99.90;;;;;;6102495;23;20104;-82
2022/01/10 04:29:09;;;;;;;28.17;8.50;;;-0.20;99.90;;;;;;6099751;23;20142;-81
2022/01/10 04:31:34;;;;;;;26.38;7.70;;;-0.30;99.90;;;;;;6125643;23;20529;-82
2022/01/10 04:34:00;;;;;;;32.78;9.40;;;-0.20;99.90;;;;;;6123744;23;20345;-82
2022/01/10 04:36:26;;;;;;;29.83;9.80;;;-0.20;99.90;;;;;;6123684;23;20041;-82
2022/01/10 04:38:52;;;;;;;22.88;8.18;;;-0.20;99.90;;;;;;6125702;23;20084;-81
2022/01/10 04:41:19;;;;;;;33.88;9.00;;;-0.10;99.90;;;;;;6099622;23;20053;-83
2022/01/10 04:43:45;;;;;;;44.00;10.07;;;-0.20;99.90;;;;;;6099441;23;20033;-82
2022/01/10 04:46:11;;;;;;;38.05;10.40;;;-0.20;99.90;;;;;;6124140;23;20038;-81
2022/01/10 04:48:36;;;;;;;39.80;9.88;;;-0.20;99.90;;;;;;6099359;23;20022;-81
2022/01/10 04:53:31;;;;;;;39.33;11.50;;;-0.10;99.90;;;;;;6129048;23;20049;-80
2022/01/10 04:55:57;;;;;;;40.80;11.48;;;0.00;99.90;;;;;;6128093;23;20029;-78
2022/01/10 04:58:23;;;;;;;33.97;10.95;;;0.10;99.90;;;;;;6123197;23;20026;-82
2022/01/10 05:00:51;;;;;;;34.70;11.77;;;0.20;99.90;;;;;;6075799;23;20109;-82
2022/01/10 05:03:17;;;;;;;43.80;11.68;;;0.20;99.90;;;;;;6097964;23;20026;-81
2022/01/10 05:05:44;;;;;;;35.35;9.98;;;0.20;99.90;;;;;;6098934;23;20022;-83
2022/01/10 05:08:10;;;;;;;38.15;9.95;;;0.10;99.90;;;;;;6124826;23;20033;-81
2022/01/10 05:10:38;;;;;;;34.75;10.13;;;0.10;99.90;;;;;;6125891;23;20018;-81
2022/01/10 05:13:05;;;;;;;39.92;11.57;;;0.00;99.90;;;;;;6101127;23;20040;-82
2022/01/10 05:15:31;;;;;;;39.97;13.75;;;0.00;99.90;;;;;;6100900;23;20105;-80
2022/01/10 05:17:56;;;;;;;48.80;14.43;;;0.10;99.90;;;;;;6077508;23;20488;-80
2022/01/10 05:20:22;;;;;;;41.50;13.02;;;0.20;99.90;;;;;;6100889;23;20354;-81
2022/01/10 05:22:48;;;;;;;39.55;12.23;;;0.20;99.90;;;;;;6125785;23;20323;-81
2022/01/10 05:25:14;;;;;;;45.28;13.90;;;0.20;99.90;;;;;;6101291;23;20018;-80
2022/01/10 05:27:44;;;;;;;38.45;11.65;;;0.20;99.90;;;;;;6081747;23;20374;-81
2022/01/10 05:30:10;;;;;;;36.40;11.43;;;0.10;99.90;;;;;;6103089;23;20105;-81
2022/01/10 05:32:36;;;;;;;37.10;11.82;;;0.00;99.90;;;;;;6127270;23;20488;-81
2022/01/10 05:35:02;;;;;;;38.83;11.90;;;0.00;99.90;;;;;;6100827;23;20473;-82
2022/01/10 05:37:28;;;;;;;35.55;11.07;;;-0.10;99.90;;;;;;6100787;23;20056;-81
2022/01/10 05:39:54;;;;;;;36.65;10.63;;;-0.20;99.90;;;;;;6101953;23;20410;-83
2022/01/10 05:42:20;;;;;;;31.88;10.18;;;-0.20;99.90;;;;;;6078246;23;20022;-81
2022/01/10 05:44:46;;;;;;;33.63;10.38;;;-0.20;99.90;;;;;;6101830;23;20048;-82
2022/01/10 05:47:16;;;;;;;36.53;11.48;;;-0.30;99.90;;;;;;6100346;23;20030;-82
2022/01/10 05:49:47;;;;;;;39.60;13.00;;;-0.30;99.90;;;;;;6052360;23;20347;-82
2022/01/10 05:52:14;;;;;;;35.05;12.45;;;-0.30;99.90;;;;;;6076948;23;20474;-81
2022/01/10 05:54:46;;;;;;;38.05;11.63;;;-0.30;99.90;;;;;;6124941;23;20496;-82
2022/01/10 05:57:17;;;;;;;40.42;12.13;;;-0.30;99.90;;;;;;6102227;23;20026;-82
2022/01/10 05:59:43;;;;;;;31.67;10.35;;;-0.30;99.90;;;;;;6101042;23;20033;-81
2022/01/10 06:02:09;;;;;;;36.15;12.00;;;-0.40;99.90;;;;;;6100553;23;20018;-81
2022/01/10 06:04:35;;;;;;;34.13;10.52;;;-0.40;99.90;;;;;;6076488;23;20529;-81
2022/01/10 06:07:01;;;;;;;33.08;9.93;;;-0.50;99.90;;;;;;6126550;23;20113;-82
2022/01/10 06:09:26;;;;;;;35.28;10.98;;;-0.50;99.90;;;;;;6126348;23;20051;-81
2022/01/10 06:11:52;;;;;;;36.65;11.95;;;-0.50;99.90;;;;;;6125056;23;20017;-81
2022/01/10 06:14:18;;;;;;;54.55;13.45;;;-0.50;99.90;;;;;;6125477;23;20112;-81
2022/01/10 06:16:44;;;;;;;44.13;12.75;;;-0.50;99.90;;;;;;6126984;23;20050;-81
2022/01/10 06:19:09;;;;;;;38.67;15.32;;;-0.50;99.90;;;;;;6127000;23;20057;-81
2022/01/10 06:21:36;;;;;;;37.45;13.80;;;-0.50;99.90;;;;;;6125376;23;20096;-81
2022/01/10 06:24:02;;;;;;;44.70;14.27;;;-0.50;99.90;;;;;;6098909;23;20462;-81
2022/01/10 06:26:28;;;;;;;47.60;16.55;;;-0.40;99.90;;;;;;6073291;23;20053;-82
2022/01/10 06:28:54;;;;;;;48.85;16.58;;;-0.40;99.90;;;;;;6075065;23;20022;-80
2022/01/10 06:31:19;;;;;;;50.88;14.52;;;-0.40;99.90;;;;;;6101267;23;20496;-80
2022/01/10 06:33:45;;;;;;;55.22;17.27;;;-0.40;99.90;;;;;;6072704;23;20018;-81
2022/01/10 06:36:11;;;;;;;51.50;18.30;;;-0.40;99.90;;;;;;6047436;23;20354;-81
2022/01/10 06:38:37;;;;;;;51.58;17.13;;;-0.40;99.90;;;;;;6071056;23;20022;-82
2022/01/10 06:41:03;;;;;;;50.78;17.02;;;-0.40;99.90;;;;;;6096998;23;20459;-82
2022/01/10 06:43:29;;;;;;;54.92;17.77;;;-0.50;99.90;;;;;;6047620;23;20707;-82
2022/01/10 06:45:54;;;;;;;50.80;16.80;;;-0.50;99.90;;;;;;6095169;23;20117;-82
2022/01/10 06:48:20;;;;;;;50.25;18.10;;;-0.50;99.90;;;;;;6071537;23;20023;-82
2022/01/10 06:50:48;;;;;;;51.67;17.80;;;-0.50;99.90;;;;;;6070938;23;20089;-82
2022/01/10 06:53:17;;;;;;;66.22;18.58;;;-0.50;99.90;;;;;;6095883;23;20019;-82
2022/01/10 06:55:44;;;;;;;52.00;18.73;;;-0.50;99.90;;;;;;6095322;23;20045;-81
2022/01/10 06:58:09;;;;;;;73.20;20.48;;;-0.50;99.90;;;;;;6071885;23;20632;-82
2022/01/10 07:00:37;;;;;;;63.03;20.52;;;-0.50;99.90;;;;;;6097656;23;20030;-82
2022/01/10 07:03:05;;;;;;;68.68;21.45;;;-0.50;99.90;;;;;;6075773;23;20054;-82
2022/01/10 07:05:31;;;;;;;82.57;23.08;;;-0.60;99.90;;;;;;6052244;23;20038;-83
2022/01/10 07:07:57;;;;;;;74.05;22.45;;;-0.50;99.90;;;;;;6072737;23;20026;-81
2022/01/10 07:10:24;;;;;;;56.30;20.08;;;-0.60;99.90;;;;;;6048150;23;20350;-83
2022/01/10 07:12:52;;;;;;;59.65;20.25;;;-0.50;99.90;;;;;;6071514;23;20029;-82
2022/01/10 07:15:18;;;;;;;93.45;25.75;;;-0.60;99.90;;;;;;6095944;23;20473;-83
2022/01/10 07:17:44;;;;;;;67.10;22.98;;;-0.60;99.90;;;;;;6072335;23;20026;-82
2022/01/10 07:20:10;;;;;;;93.97;31.52;;;-0.60;99.90;;;;;;6097582;23;20033;-83
2022/01/10 07:22:36;;;;;;;146.63;36.15;;;-0.40;99.90;;;;;;6052951;23;20671;-83
2022/01/10 07:25:02;;;;;;;118.13;38.55;;;-0.40;99.90;;;;;;6097747;23;20033;-82
2022/01/10 07:27:33;;;;;;;147.88;45.60;;;-0.10;99.90;;;;;;6121562;23;20045;-82
2022/01/10 07:30:00;;;;;;;146.10;44.03;;;0.10;99.90;;;;;;6122351;23;20045;-83
2022/01/10 07:32:29;;;;;;;168.38;48.15;;;0.30;99.90;;;;;;6122321;23;20057;-82
2022/01/10 07:34:57;;;;;;;159.30;48.15;;;0.30;99.90;;;;;;6072989;23;20141;-83
2022/01/10 07:37:22;;;;;;;163.05;49.40;;;0.40;99.90;;;;;;6070415;23;20516;-83
2022/01/10 07:39:48;;;;;;;177.35;50.97;;;0.40;99.90;;;;;;6094667;23;20026;-84
2022/01/10 07:42:14;;;;;;;161.05;50.17;;;0.50;99.90;;;;;;6119457;23;20022;-83
2022/01/10 07:44:40;;;;;;;153.32;49.85;;;0.40;99.90;;;;;;6120151;23;20359;-83
2022/01/10 07:47:08;;;;;;;161.02;50.35;;;0.50;99.90;;;;;;6075141;23;20070;-84
2022/01/10 07:49:35;;;;;;;175.02;53.72;;;0.50;99.90;;;;;;6125856;23;20022;-82
2022/01/10 07:52:02;;;;;;;181.38;53.53;;;0.50;99.90;;;;;;6123770;23;20462;-83
2022/01/10 07:54:28;;;;;;;139.30;45.88;;;0.50;99.90;;;;;;6119797;23;20027;-83
2022/01/10 07:56:54;;;;;;;184.43;51.72;;;0.40;99.90;;;;;;6119423;23;20019;-83
2022/01/10 07:59:22;;;;;;;168.50;50.63;;;0.30;99.90;;;;;;6119791;23;20027;-83
2022/01/10 08:01:49;;;;;;;182.18;55.60;;;0.30;99.90;;;;;;6119980;23;20022;-83
2022/01/10 08:04:15;;;;;;;191.48;55.33;;;0.30;99.90;;;;;;6095223;23;20022;-83
2022/01/10 08:06:41;;;;;;;179.32;52.40;;;0.30;99.90;;;;;;6119025;23;20073;-84
2022/01/10 08:09:08;;;;;;;198.60;59.15;;;0.40;99.90;;;;;;6094729;23;20054;-84
2022/01/10 08:11:33;;;;;;;130.05;46.45;;;0.50;99.90;;;;;;6094129;23;20026;-84
2022/01/10 08:14:00;;;;;;;162.00;51.45;;;0.40;99.90;;;;;;6094979;23;20041;-84
2022/01/10 08:16:27;;;;;;;219.70;60.70;;;0.40;99.90;;;;;;6096202;23;20394;-83
2022/01/10 08:18:53;;;;;;;178.00;56.80;;;0.50;99.90;;;;;;6071246;23;20026;-83
2022/01/10 08:21:19;;;;;;;165.93;54.60;;;0.50;99.90;;;;;;6070335;23;20037;-83
2022/01/10 08:23:45;;;;;;;181.50;57.20;;;0.60;99.90;;;;;;6074704;23;20053;-83
2022/01/10 08:26:10;;;;;;;196.05;62.47;;;0.70;99.90;;;;;;6123710;23;20085;-83
2022/01/10 08:28:37;;;;;;;198.38;60.88;;;0.70;99.90;;;;;;6076920;23;20105;-82
2022/01/10 08:31:03;;;;;;;221.70;66.43;;;0.80;99.90;;;;;;6102370;23;20025;-82
2022/01/10 08:33:29;;;;;;;181.55;59.38;;;0.90;99.90;;;;;;6103851;23;20026;-83
2022/01/10 08:35:55;;;;;;;206.85;62.85;;;0.80;99.90;;;;;;6133921;23;20022;-82
2022/01/10 08:38:21;;;;;;;176.20;60.08;;;0.90;99.90;;;;;;6100595;23;20508;-83
2022/01/10 08:40:47;;;;;;;212.02;69.63;;;1.00;99.90;;;;;;6075424;23;20021;-82
2022/01/10 08:43:16;;;;;;;221.35;69.95;;;1.10;99.90;;;;;;6099418;23;20077;-84
2022/01/10 08:45:43;;;;;;;243.68;70.70;;;1.20;99.90;;;;;;6127125;23;20036;-83
2022/01/10 08:48:09;;;;;;;216.48;65.90;;;1.20;99.90;;;;;;6076324;23;20105;-83
2022/01/10 08:50:35;;;;;;;182.52;63.35;;;1.30;99.90;;;;;;6076947;23;20029;-83
2022/01/10 08:53:07;;;;;;;155.00;57.33;;;1.40;99.90;;;;;;6097005;23;20026;-82
2022/01/10 08:55:33;;;;;;;166.82;59.22;;;1.30;99.90;;;;;;6076892;23;20026;-81
2022/01/10 08:58:00;;;;;;;147.70;55.83;;;1.40;99.90;;;;;;6100979;23;20025;-83
2022/01/10 09:00:26;;;;;;;173.30;57.58;;;1.40;99.90;;;;;;6126155;23;20029;-82
2022/01/10 09:03:15;;;;;;;164.93;60.25;;;1.50;99.90;;;;;;6127220;23;20073;-82
2022/01/10 09:05:49;;;;;;;152.25;56.00;;;1.60;99.90;;;;;;6125501;23;20025;-82
2022/01/10 09:08:15;;;;;;;146.13;53.40;;;1.60;99.90;;;;;;6125829;23;20503;-82
2022/01/10 09:10:41;;;;;;;134.02;52.88;;;1.70;99.90;;;;;;6101562;23;20030;-82
2022/01/10 09:13:25;;;;;;;178.60;61.53;;;1.80;99.90;;;;;;6128305;23;20080;-82
2022/01/10 09:15:51;;;;;;;145.25;51.97;;;1.80;99.90;;;;;;6123020;23;20104;-82
2022/01/10 09:18:17;;;;;;;162.32;56.35;;;1.90;99.90;;;;;;6104326;23;20077;-82
2022/01/10 09:20:46;;;;;;;187.25;59.20;;;1.90;99.90;;;;;;6125412;23;20104;-82
2022/01/10 09:23:12;;;;;;;147.35;54.13;;;2.00;99.90;;;;;;6045062;23;20066;-82
2022/01/10 09:25:39;;;;;;;206.38;62.08;;;2.10;99.90;;;;;;6072542;23;20034;-82
2022/01/10 09:28:05;;;;;;;253.02;65.25;;;2.20;99.90;;;;;;6099834;23;20053;-82
2022/01/10 09:30:31;;;;;;;214.18;63.83;;;2.10;99.90;;;;;;6099657;23;20041;-81
2022/01/10 09:32:57;;;;;;;176.70;57.58;;;2.10;99.90;;;;;;6121687;23;20339;-82
2022/01/10 09:35:25;;;;;;;147.70;51.58;;;2.10;99.90;;;;;;6072671;23;20026;-82
2022/01/10 09:37:52;;;;;;;175.73;58.38;;;2.20;99.90;;;;;;6072045;23;20027;-82
2022/01/10 09:40:27;;;;;;;367.45;78.65;;;2.20;99.90;;;;;;6096063;23;20030;-83
2022/01/10 09:42:54;;;;;;;191.45;65.55;;;2.40;99.90;;;;;;6072275;23;20350;-81
2022/01/10 09:45:23;;;;;;;145.63;57.33;;;2.60;99.90;;;;;;6072078;23;20109;-83
2022/01/10 09:47:48;;;;;;;136.93;55.75;;;2.70;99.90;;;;;;6071943;23;20081;-83
2022/01/10 09:50:16;;;;;;;143.43;57.25;;;2.80;99.90;;;;;;6096062;23;20057;-83
2022/01/10 09:52:44;;;;;;;121.72;51.40;;;2.90;99.90;;;;;;6099208;23;20177;-83
2022/01/10 09:55:10;;;;;;;126.30;54.05;;;3.10;99.90;;;;;;6101413;23;20026;-84
2022/01/10 09:57:36;;;;;;;118.80;51.22;;;3.20;99.90;;;;;;6124655;23;20049;-83
2022/01/10 10:00:04;;;;;;;136.35;55.20;;;3.40;99.90;;;;;;6097635;23;20323;-82
2022/01/10 10:02:34;;;;;;;274.42;73.43;;;3.50;99.90;;;;;;6096389;23;20026;-83
2022/01/10 10:05:04;;;;;;;149.90;60.75;;;3.80;99.90;;;;;;6120181;23;20027;-82
2022/01/10 10:07:30;;;;;;;156.50;63.85;;;4.10;99.90;;;;;;6071561;23;20471;-82
2022/01/10 10:10:13;;;;;;;162.73;61.65;;;4.40;99.90;;;;;;6096515;23;20454;-83
2022/01/10 10:12:50;;;;;;;126.18;54.55;;;4.70;99.90;;;;;;6048214;23;20141;-82
2022/01/10 10:15:19;;;;;;;117.00;53.38;;;4.90;99.90;;;;;;6095944;23;20110;-83
2022/01/10 10:17:46;;;;;;;115.63;50.25;;;4.90;99.90;;;;;;6119745;23;20033;-83
2022/01/10 10:20:23;;;;;;;101.45;47.65;;;5.10;99.90;;;;;;6097864;23;20025;-84
2022/01/10 10:22:53;;;;;;;101.28;45.83;;;5.20;99.90;;;;;;6078206;23;20040;-84
2022/01/10 10:25:37;;;;;;;90.15;45.35;;;5.40;99.90;;;;;;6013498;23;20027;-84
2022/01/10 10:28:03;;;;;;;101.10;45.38;;;5.80;99.90;;;;;;6037256;23;20030;-84
2022/01/10 10:30:32;;;;;;;96.65;45.28;;;6.00;99.90;;;;;;6037278;23;20523;-84
2022/01/10 10:33:15;;;;;;;72.40;37.13;;;6.20;99.90;;;;;;6014144;23;20023;-84
2022/01/10 10:35:43;;;;;;;80.97;42.25;;;6.60;99.90;;;;;;6014790;23;20308;-84
2022/01/10 10:38:09;;;;;;;77.50;40.60;;;7.00;99.90;;;;;;6015954;23;20103;-84
2022/01/10 10:40:44;;;;;;;69.95;37.63;;;7.30;99.90;;;;;;6013215;23;20067;-84
2022/01/10 10:43:10;;;;;;;59.78;33.88;;;7.40;99.90;;;;;;6012841;23;20023;-82
2022/01/10 10:45:48;;;;;;;60.80;29.33;;;7.40;99.90;;;;;;5990162;23;20075;-81
2022/01/10 10:48:17;;;;;;;48.42;27.52;;;7.70;99.90;;;;;;6012865;23;20062;-83
2022/01/10 10:50:45;;;;;;;48.95;25.17;;;7.60;99.90;;;;;;6013054;23;20027;-84
2022/01/10 10:53:13;;;;;;;51.15;24.92;;;7.50;99.90;;;;;;6012888;23;20035;-82
2022/01/10 10:55:42;;;;;;;41.75;23.42;;;7.80;99.90;;;;;;6012732;23;20019;-84
2022/01/10 10:58:09;;;;;;;45.67;23.90;;;8.10;99.90;;;;;;6012882;23;20025;-84
2022/01/10 11:00:36;;;;;;;34.67;20.85;;;8.60;99.90;;;;;;6013164;23;20522;-84
2022/01/10 11:03:03;;;;;;;38.65;19.40;;;8.50;99.90;;;;;;6056657;23;20072;-85
2022/01/10 11:05:29;;;;;;;44.03;21.90;;;8.40;99.90;;;;;;6125165;23;20028;-83
2022/01/10 11:07:56;;;;;;;38.70;20.67;;;8.50;99.90;;;;;;6075778;23;20513;-83
2022/01/10 11:10:24;;;;;;;35.97;18.55;;;9.00;99.90;;;;;;6126839;23;20547;-82
2022/01/10 11:12:54;;;;;;;38.25;19.83;;;9.40;99.90;;;;;;6079142;23;20096;-84
2022/01/10 11:15:22;;;;;;;36.97;19.52;;;9.60;99.90;;;;;;6102775;23;20029;-84
2022/01/10 11:17:48;;;;;;;29.95;17.30;;;9.80;99.90;;;;;;6100296;23;20057;-82
2022/01/10 11:20:17;;;;;;;33.67;18.88;;;10.00;99.90;;;;;;6126139;23;20029;-84
2022/01/10 11:22:48;;;;;;;34.10;17.42;;;10.20;99.90;;;;;;6075828;23;20461;-84
2022/01/10 11:25:23;;;;;;;28.27;17.77;;;10.20;99.90;;;;;;6125505;23;20058;-84
2022/01/10 11:27:51;;;;;;;31.40;17.00;;;10.40;99.90;;;;;;6124765;23;20060;-83
2022/01/10 11:30:26;;;;;;;31.50;15.90;;;11.00;99.90;;;;;;6126159;23;20022;-83
2022/01/10 11:33:04;;;;;;;28.40;14.93;;;11.30;99.90;;;;;;6126207;23;20041;-83
2022/01/10 11:35:41;;;;;;;25.80;15.45;;;11.50;99.90;;;;;;6125051;23;20018;-84
2022/01/10 11:38:19;;;;;;;30.85;16.02;;;11.70;99.90;;;;;;6076600;23;20715;-84
2022/01/10 11:40:47;;;;;;;25.15;14.75;;;12.10;99.90;;;;;;6075075;23;20026;-83
2022/01/10 11:43:33;;;;;;;28.00;14.57;;;12.60;99.90;;;;;;6124927;23;20033;-84
2022/01/10 11:46:14;;;;;;;29.55;14.80;;;12.90;99.90;;;;;;6078216;23;20025;-82
2022/01/10 11:48:44;;;;;;;27.73;13.18;;;13.50;99.90;;;;;;6102183;23;20057;-83
2022/01/10 11:51:15;;;;;;;24.35;11.55;;;14.00;99.90;;;;;;6099954;23;20030;-84
2022/01/10 11:53:47;;;;;;;23.67;13.63;;;14.20;99.90;;;;;;6098722;23;20343;-84
2022/01/10 11:56:23;;;;;;;28.38;13.93;;;14.20;99.90;;;;;;6099778;23;20017;-83
2022/01/10 11:59:10;;;;;;;24.83;13.15;;;14.20;99.50;;;;;;6126332;23;20104;-83
2022/01/10 12:01:38;;;;;;;23.95;12.55;;;14.20;99.20;;;;;;6125846;23;20053;-83
2022/01/10 12:04:04;;;;;;;30.25;13.45;;;14.10;99.90;;;;;;6099218;23;20449;-83
2022/01/10 12:06:30;;;;;;;24.88;13.35;;;14.20;99.90;;;;;;6099291;23;20053;-84
2022/01/10 12:08:58;;;;;;;22.55;12.45;;;14.10;99.80;;;;;;6074997;23;20029;-83
2022/01/10 12:11:26;;;;;;;21.00;12.10;;;14.00;99.90;;;;;;6098339;23;20035;-84
2022/01/10 12:13:54;;;;;;;22.60;13.35;;;14.10;99.90;;;;;;6126216;23;20097;-84
2022/01/10 12:16:24;;;;;;;20.77;11.70;;;14.30;99.80;;;;;;6075014;23;20065;-84
2022/01/10 12:18:50;;;;;;;26.58;13.73;;;14.90;97.50;;;;;;6074204;23;20025;-84
2022/01/10 12:21:16;;;;;;;22.27;13.07;;;15.20;97.20;;;;;;6123747;23;20425;-83
2022/01/10 12:23:43;;;;;;;23.15;11.93;;;15.80;96.60;;;;;;6124466;23;20029;-84
2022/01/10 12:26:11;;;;;;;23.30;11.88;;;16.40;95.20;;;;;;6075423;23;20105;-84
2022/01/10 12:28:37;;;;;;;21.60;13.20;;;16.70;94.00;;;;;;6076408;23;20358;-84
2022/01/10 12:31:07;;;;;;;22.60;12.65;;;17.10;92.70;;;;;;6077282;23;20050;-84
2022/01/10 12:33:33;;;;;;;16.35;12.25;;;17.50;83.60;;;;;;6128599;23;20018;-84
2022/01/10 12:36:05;;;;;;;21.67;12.82;;;17.60;90.10;;;;;;6128790;23;20076;-85
2022/01/10 12:38:31;;;;;;;23.23;12.45;;;17.70;88.60;;;;;;6075563;23;20084;-83
2022/01/10 12:40:57;;;;;;;18.02;11.80;;;18.00;85.40;;;;;;6124436;23;20061;-84
2022/01/10 12:43:30;;;;;;;21.92;11.68;;;18.00;84.00;;;;;;6075200;23;20022;-84
2022/01/10 12:45:56;;;;;;;22.55;11.30;;;18.00;73.20;;;;;;6098858;23;20450;-85
2022/01/10 12:48:24;;;;;;;18.27;11.70;;;18.40;77.70;;;;;;6125775;23;20602;-84
2022/01/10 12:50:51;;;;;;;19.23;11.95;;;18.50;74.60;;;;;;6123404;23;20045;-84